San Mateo, Florida
Current Conditions -  °F | °C
As of 7:50 AM on Monday 20 Oct 2014 (Local Time) from KXFL Reporting Station
Broken Clouds Broken Clouds  
Wind Chill: 66°   Ceiling: 3000
Heat Index: 66°   Visibility: 7mi
Dew Point: 64°   Wind: 0mph
Humidity: 94%   Direction: NA
Pressure: 30.06"   Gusts: NA
Location:  29.59°N, 81.6°W
Report Text: KXFL 201150Z 00000KT 7SM BKN030 19/18 A3006
Loading
Personal Weather Stations






























Interactive Weather Map
Tropical Storm Tracking
New forecast layout! Learn more

10-Day Weather Forecast

Advertisements
Track Severe Weather on mobile